createdAt,value
2023-04-18T00:00:49.823Z,7.50
2023-04-18T00:04:56.475Z,7.40
2023-04-18T00:09:02.583Z,7.40
2023-04-18T00:13:08.322Z,7.40
2023-04-18T00:17:14.505Z,7.30
2023-04-18T00:21:22.170Z,7.40
2023-04-18T00:25:27.835Z,7.30
2023-04-18T00:29:33.397Z,7.30
2023-04-18T00:33:38.950Z,7.30
2023-04-18T00:37:44.529Z,7.30
2023-04-18T00:41:50.011Z,7.30
2023-04-18T00:45:57.237Z,7.20
2023-04-18T00:50:03.291Z,7.20
2023-04-18T00:54:11.412Z,7.20
2023-04-18T00:58:17.089Z,7.20
2023-04-18T01:02:23.004Z,7.20
2023-04-18T01:06:30.091Z,7.10
2023-04-18T01:10:36.737Z,7.10
2023-04-18T01:14:43.456Z,7.10
2023-04-18T01:18:48.957Z,7.00
2023-04-18T01:22:55.606Z,7.10
2023-04-18T01:27:03.368Z,7.00
2023-04-18T01:31:08.998Z,7.00
2023-04-18T01:35:14.612Z,7.00
2023-04-18T01:39:20.297Z,7.00
2023-04-18T01:43:25.927Z,6.90
2023-04-18T01:47:31.663Z,6.90
2023-04-18T01:51:38.925Z,6.90
2023-04-18T01:55:44.724Z,6.80
2023-04-18T01:59:50.289Z,6.80
2023-04-18T02:03:56.289Z,6.90
2023-04-18T02:08:01.953Z,6.80
2023-04-18T02:12:07.719Z,6.80
2023-04-18T02:16:14.082Z,6.70
2023-04-18T02:20:19.863Z,6.80
2023-04-18T02:24:25.522Z,6.70
2023-04-18T02:28:31.244Z,6.70
2023-04-18T02:32:36.883Z,6.70
2023-04-18T02:36:43.007Z,6.60
2023-04-18T02:40:48.575Z,6.70
2023-04-18T02:44:54.140Z,6.60
2023-04-18T02:49:00.028Z,6.60
2023-04-18T02:53:05.677Z,6.60
2023-04-18T02:57:11.310Z,6.60
2023-04-18T03:01:18.500Z,6.60
2023-04-18T03:05:24.210Z,6.60
2023-04-18T03:09:30.238Z,6.60
2023-04-18T03:13:35.875Z,6.50
2023-04-18T03:17:42.065Z,6.50
2023-04-18T03:21:47.660Z,6.50
2023-04-18T03:25:53.190Z,6.50
2023-04-18T03:29:58.780Z,6.50
2023-04-18T03:34:04.298Z,6.50
2023-04-18T03:38:09.940Z,6.50
2023-04-18T03:42:15.554Z,6.50
2023-04-18T03:46:22.225Z,6.50
2023-04-18T03:50:27.861Z,6.40
2023-04-18T03:54:33.528Z,6.50
2023-04-18T03:58:39.160Z,6.40
2023-04-18T04:02:44.851Z,6.40
2023-04-18T04:06:51.018Z,6.40
2023-04-18T04:10:56.556Z,6.40
2023-04-18T04:15:02.127Z,6.40
2023-04-18T04:19:08.269Z,6.40
2023-04-18T04:23:14.118Z,6.40
2023-04-18T04:27:20.555Z,6.40
2023-04-18T04:31:26.280Z,6.40
2023-04-18T04:35:32.237Z,6.40
2023-04-18T04:39:37.873Z,6.40
2023-04-18T04:43:43.406Z,6.40
2023-04-18T04:47:49.103Z,6.50
2023-04-18T04:51:54.621Z,6.50
2023-04-18T04:56:00.332Z,6.60
2023-04-18T05:00:07.789Z,6.60
2023-04-18T05:04:14.010Z,6.70
2023-04-18T05:08:20.063Z,6.70
2023-04-18T05:12:27.034Z,6.80
2023-04-18T05:16:32.952Z,6.70
2023-04-18T05:20:38.551Z,6.90
2023-04-18T05:24:44.045Z,7.00
2023-04-18T05:28:49.661Z,7.00
2023-04-18T05:32:55.239Z,7.10
2023-04-18T05:37:00.860Z,7.10
2023-04-18T05:41:06.388Z,7.10
2023-04-18T05:45:12.353Z,7.20
2023-04-18T05:49:21.081Z,7.30
2023-04-18T05:53:26.674Z,7.40
2023-04-18T05:57:32.320Z,7.50
2023-04-18T06:01:37.922Z,7.50
2023-04-18T06:05:43.571Z,7.60
2023-04-18T06:09:49.833Z,7.60
2023-04-18T06:13:56.179Z,7.70
2023-04-18T06:18:01.797Z,7.70
2023-04-18T06:22:07.452Z,7.80
2023-04-18T06:26:13.371Z,7.90
2023-04-18T06:30:21.899Z,8.00
2023-04-18T06:34:27.579Z,8.00
2023-04-18T06:38:34.081Z,8.10
2023-04-18T06:42:39.687Z,8.20
2023-04-18T06:46:46.455Z,8.30
2023-04-18T06:50:52.009Z,8.30
2023-04-18T06:54:57.598Z,8.30
2023-04-18T06:59:03.156Z,8.40
2023-04-18T07:03:13.531Z,8.40
2023-04-18T07:07:20.444Z,8.40
2023-04-18T07:11:26.107Z,8.50
2023-04-18T07:15:31.641Z,8.60
2023-04-18T07:19:37.151Z,8.60
2023-04-18T07:23:42.760Z,8.60
2023-04-18T07:27:48.254Z,8.60
2023-04-18T07:31:53.781Z,8.60
2023-04-18T07:36:00.647Z,8.80
2023-04-18T07:40:07.130Z,8.80
2023-04-18T07:44:12.759Z,9.00
2023-04-18T07:48:18.994Z,9.00
2023-04-18T07:52:24.692Z,9.00
2023-04-18T07:56:30.208Z,9.10
2023-04-18T08:00:39.701Z,9.00
2023-04-18T08:04:47.386Z,9.10
2023-04-18T08:08:53.050Z,9.20
2023-04-18T08:12:58.661Z,9.30
2023-04-18T08:17:04.148Z,9.30
2023-04-18T08:21:09.680Z,9.40
2023-04-18T08:25:16.662Z,9.60
2023-04-18T08:29:22.168Z,9.70
2023-04-18T08:33:29.167Z,9.80
2023-04-18T08:37:35.504Z,9.90
2023-04-18T08:41:43.402Z,9.90
2023-04-18T08:45:49.141Z,10.00
2023-04-18T08:49:56.230Z,10.40
2023-04-18T08:54:04.600Z,10.40
2023-04-18T08:58:12.542Z,10.50
2023-04-18T09:02:19.243Z,10.70
2023-04-18T09:06:25.549Z,10.90
2023-04-18T09:10:34.340Z,10.70
2023-04-18T09:14:45.784Z,10.60
2023-04-18T09:19:18.169Z,10.40
2023-04-18T09:23:26.188Z,10.50
2023-04-18T09:27:35.161Z,10.40
2023-04-18T09:31:57.938Z,10.30
2023-04-18T09:36:23.431Z,10.30
2023-04-18T09:40:29.180Z,10.30
2023-04-18T09:44:34.883Z,10.20
2023-04-18T09:48:41.730Z,10.40
2023-04-18T09:52:48.674Z,10.30
2023-04-18T09:56:56.385Z,10.30
2023-04-18T10:01:04.153Z,10.30
2023-04-18T10:05:11.332Z,10.40
2023-04-18T10:09:17.753Z,10.30
2023-04-18T10:13:24.236Z,10.30
2023-04-18T10:17:29.902Z,10.30
2023-04-18T10:21:35.504Z,10.30
2023-04-18T10:25:41.285Z,10.20
2023-04-18T10:29:50.696Z,10.20
2023-04-18T10:38:17.215Z,10.00
2023-04-18T10:42:52.120Z,10.00
2023-04-18T10:46:57.841Z,10.10
2023-04-18T10:51:17.437Z,10.20
2023-04-18T10:55:28.913Z,10.20
2023-04-18T10:59:38.598Z,10.20
2023-04-18T11:03:44.347Z,10.10
2023-04-18T11:07:50.291Z,10.10
2023-04-18T11:12:11.521Z,10.10
2023-04-18T11:16:32.213Z,10.40
2023-04-18T11:20:40.979Z,10.30
2023-04-18T11:24:46.481Z,10.20
2023-04-18T11:28:53.240Z,10.30
2023-04-18T11:32:58.970Z,10.30
2023-04-18T11:37:08.470Z,10.50
2023-04-18T11:41:15.675Z,10.50
2023-04-18T11:45:21.240Z,10.70
2023-04-18T11:49:33.008Z,10.80
2023-04-18T11:53:39.588Z,10.90
2023-04-18T11:57:56.923Z,10.90
2023-04-18T12:02:15.481Z,11.00
2023-04-18T12:06:22.212Z,11.10
2023-04-18T12:10:29.784Z,11.30
2023-04-18T12:14:36.394Z,11.40
2023-04-18T12:18:42.255Z,11.40
2023-04-18T12:22:50.142Z,11.30
2023-04-18T12:26:58.092Z,11.40
2023-04-18T12:31:07.580Z,11.40
2023-04-18T12:35:13.173Z,11.60
2023-04-18T12:39:18.759Z,11.50
2023-04-18T12:43:24.264Z,11.60
2023-04-18T12:47:30.101Z,11.60
2023-04-18T12:51:35.733Z,11.70
2023-04-18T12:55:41.410Z,11.90
2023-04-18T12:59:46.916Z,11.90
2023-04-18T13:04:03.989Z,11.80
2023-04-18T13:08:18.115Z,12.00
2023-04-18T13:12:23.789Z,12.10
2023-04-18T13:16:29.446Z,12.30
2023-04-18T13:20:35.861Z,12.20
2023-04-18T13:24:41.354Z,12.40
2023-04-18T13:28:46.926Z,12.70
2023-04-18T13:32:52.483Z,12.90
2023-04-18T13:36:59.052Z,12.90
2023-04-18T13:41:12.089Z,13.10
2023-04-18T13:45:19.240Z,13.10
2023-04-18T13:49:24.912Z,13.20
2023-04-18T13:53:31.035Z,13.20
2023-04-18T13:57:37.413Z,13.40
2023-04-18T14:01:43.463Z,13.20
2023-04-18T14:05:49.051Z,13.50
2023-04-18T14:09:54.680Z,13.50
2023-04-18T14:14:00.249Z,13.50
2023-04-18T14:18:06.442Z,13.80
2023-04-18T14:22:12.106Z,13.90
2023-04-18T14:26:18.568Z,14.00
2023-04-18T14:30:24.215Z,13.90
2023-04-18T14:34:31.224Z,13.80
2023-04-18T14:38:38.878Z,14.10
2023-04-18T14:42:44.514Z,14.10
2023-04-18T14:46:50.072Z,13.60
2023-04-18T14:51:02.486Z,13.90
2023-04-18T14:55:09.461Z,14.30
2023-04-18T14:59:16.716Z,14.50
2023-04-18T15:03:22.906Z,14.70
2023-04-18T15:07:28.565Z,14.70
2023-04-18T15:11:34.135Z,14.70
2023-04-18T15:15:39.882Z,14.80
2023-04-18T15:19:45.533Z,14.60
2023-04-18T15:23:51.202Z,14.70
2023-04-18T15:27:57.538Z,14.70
2023-04-18T15:32:03.118Z,14.80
2023-04-18T15:36:10.019Z,15.10
2023-04-18T15:40:18.771Z,15.00
2023-04-18T15:44:24.508Z,14.90
2023-04-18T15:48:33.982Z,15.00
2023-04-18T15:52:41.460Z,15.10
2023-04-18T15:56:46.971Z,15.10
2023-04-18T16:00:53.552Z,15.30
2023-04-18T16:04:59.117Z,15.30
2023-04-18T16:09:06.887Z,15.30
2023-04-18T16:13:12.590Z,15.30
2023-04-18T16:17:18.022Z,15.40
2023-04-18T16:21:23.612Z,15.20
2023-04-18T16:25:29.131Z,15.00
2023-04-18T16:29:35.648Z,15.00
2023-04-18T16:33:41.275Z,15.00
2023-04-18T16:37:47.254Z,14.70
2023-04-18T16:41:52.789Z,14.50
2023-04-18T16:46:00.321Z,14.40
2023-04-18T16:50:07.491Z,14.50
2023-04-18T16:54:13.247Z,14.30
2023-04-18T16:58:20.191Z,14.20
2023-04-18T17:02:25.952Z,14.20
2023-04-18T17:06:32.660Z,14.30
2023-04-18T17:10:38.307Z,14.20
2023-04-18T17:14:43.953Z,13.80
2023-04-18T17:18:49.399Z,13.70
2023-04-18T17:22:55.518Z,13.30
2023-04-18T17:27:01.305Z,13.10
2023-04-18T17:31:07.590Z,13.10
2023-04-18T17:35:14.712Z,13.00
2023-04-18T17:39:20.330Z,12.90
2023-04-18T17:43:26.373Z,12.60
2023-04-18T17:47:33.498Z,12.40
2023-04-18T17:51:39.061Z,12.30
2023-04-18T17:55:46.835Z,12.10
2023-04-18T17:59:52.701Z,12.10
2023-04-18T18:03:58.960Z,12.00
2023-04-18T18:08:05.109Z,11.80
2023-04-18T18:12:11.457Z,11.70
2023-04-18T18:16:17.087Z,11.70
2023-04-18T18:20:22.714Z,11.70
2023-04-18T18:24:28.310Z,11.60
2023-04-18T18:28:34.089Z,11.40
2023-04-18T18:32:39.686Z,11.30
2023-04-18T18:36:46.117Z,11.30
2023-04-18T18:40:51.819Z,11.30
2023-04-18T18:44:57.364Z,11.20
2023-04-18T18:49:03.127Z,11.00
2023-04-18T18:53:08.796Z,10.90
2023-04-18T18:57:14.465Z,10.80
2023-04-18T19:01:20.607Z,10.60
2023-04-18T19:05:26.458Z,10.50
2023-04-18T19:09:32.002Z,10.40
2023-04-18T19:13:37.497Z,10.30
2023-04-18T19:17:43.088Z,10.20
2023-04-18T19:21:48.706Z,10.10
2023-04-18T19:25:54.228Z,9.90
2023-04-18T19:29:59.720Z,9.80
2023-04-18T19:34:05.303Z,9.70
2023-04-18T19:38:10.948Z,9.60
2023-04-18T19:42:16.412Z,9.50
2023-04-18T19:46:21.996Z,9.40
2023-04-18T19:50:27.936Z,9.40
2023-04-18T19:54:34.109Z,9.30
2023-04-18T19:58:46.890Z,9.20
2023-04-18T20:02:53.459Z,9.10
2023-04-18T20:06:59.153Z,9.00
2023-04-18T20:11:09.957Z,9.00
2023-04-18T20:15:15.532Z,8.90
2023-04-18T20:19:21.131Z,8.90
2023-04-18T20:23:26.730Z,8.80
2023-04-18T20:27:32.218Z,8.80
2023-04-18T20:31:42.153Z,8.70
2023-04-18T20:35:47.845Z,8.60
2023-04-18T20:39:54.669Z,8.60
2023-04-18T20:44:05.016Z,8.60
2023-04-18T20:48:10.634Z,8.50
2023-04-18T20:52:16.407Z,8.50
2023-04-18T20:56:22.104Z,8.40
2023-04-18T21:00:28.682Z,8.40
2023-04-18T21:04:34.870Z,8.40
2023-04-18T21:08:40.687Z,8.30
2023-04-18T21:12:46.539Z,8.30
2023-04-18T21:16:52.033Z,8.20
2023-04-18T21:20:57.627Z,8.20
2023-04-18T21:25:04.368Z,8.20
2023-04-18T21:29:10.054Z,8.10
2023-04-18T21:33:15.625Z,8.10
2023-04-18T21:37:21.208Z,8.10
2023-04-18T21:41:27.840Z,8.00
2023-04-18T21:45:33.767Z,8.00
2023-04-18T21:49:39.244Z,7.90
2023-04-18T21:53:45.092Z,7.90
2023-04-18T21:57:50.713Z,7.90
2023-04-18T22:01:56.321Z,7.80
2023-04-18T22:06:02.605Z,7.80
2023-04-18T22:10:08.878Z,7.80
2023-04-18T22:14:17.295Z,7.70
2023-04-18T22:18:22.936Z,7.70
2023-04-18T22:22:28.461Z,7.70
2023-04-18T22:26:33.918Z,7.70
2023-04-18T22:30:39.668Z,7.60
2023-04-18T22:34:45.396Z,7.60
2023-04-18T22:38:50.891Z,7.60
2023-04-18T22:42:56.384Z,7.60
2023-04-18T22:47:03.029Z,7.50
2023-04-18T22:51:08.545Z,7.50
2023-04-18T22:55:16.461Z,7.50
2023-04-18T22:59:22.206Z,7.40
2023-04-18T23:03:27.907Z,7.40
2023-04-18T23:07:33.593Z,7.40
2023-04-18T23:11:39.109Z,7.30
2023-04-18T23:15:44.800Z,7.30
2023-04-18T23:19:50.382Z,7.30
2023-04-18T23:23:56.350Z,7.30
2023-04-18T23:28:01.950Z,7.30
2023-04-18T23:32:07.655Z,7.30
2023-04-18T23:36:13.313Z,7.30
2023-04-18T23:40:20.188Z,7.20
2023-04-18T23:44:25.771Z,7.20
2023-04-18T23:48:31.327Z,7.20
2023-04-18T23:52:38.520Z,7.20
2023-04-18T23:56:44.055Z,7.10
